createdAt,value
2018-10-15T00:01:10.750Z,64.00
2018-10-15T00:03:38.831Z,64.20
2018-10-15T00:06:06.939Z,65.10
2018-10-15T00:08:35.059Z,64.30
2018-10-15T00:11:03.272Z,64.50
2018-10-15T00:13:31.357Z,64.50
2018-10-15T00:15:59.416Z,64.60
2018-10-15T00:18:27.524Z,64.70
2018-10-15T00:20:55.656Z,64.70
2018-10-15T00:23:24.011Z,64.80
2018-10-15T00:25:52.107Z,64.80
2018-10-15T00:28:20.232Z,65.00
2018-10-15T00:30:48.319Z,65.00
2018-10-15T00:33:16.440Z,65.00
2018-10-15T00:35:44.513Z,65.10
2018-10-15T00:38:12.623Z,65.10
2018-10-15T00:40:40.692Z,65.10
2018-10-15T00:43:08.779Z,65.20
2018-10-15T00:45:36.882Z,65.30
2018-10-15T00:48:05.457Z,65.20
2018-10-15T00:50:33.588Z,65.20
2018-10-15T00:53:01.719Z,65.10
2018-10-15T00:55:29.787Z,65.00
2018-10-15T00:57:57.871Z,65.10
2018-10-15T01:00:25.981Z,65.10
2018-10-15T01:02:54.065Z,65.20
2018-10-15T01:05:22.147Z,65.10
2018-10-15T01:07:50.250Z,64.90
2018-10-15T01:10:18.343Z,66.10
2018-10-15T01:12:46.447Z,65.90
2018-10-15T01:15:14.575Z,65.60
2018-10-15T01:17:42.702Z,65.50
2018-10-15T01:20:12.356Z,65.20
2018-10-15T01:22:40.459Z,65.10
2018-10-15T01:25:09.514Z,64.90
2018-10-15T01:27:37.599Z,64.80
2018-10-15T01:30:06.336Z,64.80
2018-10-15T01:32:34.414Z,65.40
2018-10-15T01:35:02.535Z,64.70
2018-10-15T01:37:30.634Z,64.60
2018-10-15T01:39:58.726Z,64.70
2018-10-15T01:42:26.816Z,64.70
2018-10-15T01:44:54.899Z,64.60
2018-10-15T01:47:23.027Z,64.80
2018-10-15T01:49:51.440Z,64.80
2018-10-15T01:52:19.527Z,64.80
2018-10-15T01:54:47.629Z,65.20
2018-10-15T01:57:15.736Z,65.00
2018-10-15T01:59:43.851Z,65.10
2018-10-15T02:02:11.970Z,65.20
2018-10-15T02:04:40.104Z,65.40
2018-10-15T02:07:08.253Z,65.50
2018-10-15T02:09:36.423Z,65.50
2018-10-15T02:12:04.586Z,65.50
2018-10-15T02:14:32.683Z,65.70
2018-10-15T02:17:00.774Z,65.70
2018-10-15T02:19:28.846Z,65.50
2018-10-15T02:21:56.954Z,65.70
2018-10-15T02:24:25.065Z,65.70
2018-10-15T02:26:53.161Z,65.70
2018-10-15T02:29:21.233Z,65.80
2018-10-15T02:31:49.380Z,65.80
2018-10-15T02:34:17.480Z,65.90
2018-10-15T02:36:45.550Z,65.90
2018-10-15T02:39:13.957Z,65.90
2018-10-15T02:41:42.415Z,65.80
2018-10-15T02:44:10.558Z,67.00
2018-10-15T02:46:39.058Z,66.90
2018-10-15T02:49:07.442Z,66.60
2018-10-15T02:51:35.570Z,66.50
2018-10-15T02:54:03.636Z,66.30
2018-10-15T02:56:31.743Z,66.10
2018-10-15T02:58:59.835Z,66.00
2018-10-15T03:01:27.972Z,65.90
2018-10-15T03:03:56.058Z,65.80
2018-10-15T03:06:24.181Z,65.80
2018-10-15T03:08:52.287Z,65.70
2018-10-15T03:11:20.396Z,65.70
2018-10-15T03:13:48.491Z,65.80
2018-10-15T03:16:16.601Z,65.90
2018-10-15T03:18:44.675Z,66.00
2018-10-15T03:21:12.771Z,65.80
2018-10-15T03:23:40.863Z,65.90
2018-10-15T03:26:08.968Z,66.00
2018-10-15T03:28:37.059Z,65.90
2018-10-15T03:31:05.339Z,66.40
2018-10-15T03:33:33.438Z,66.30
2018-10-15T03:36:01.528Z,66.50
2018-10-15T03:38:30.300Z,66.30
2018-10-15T03:40:59.052Z,66.20
2018-10-15T03:43:27.126Z,66.40
2018-10-15T03:45:55.222Z,66.30
2018-10-15T03:48:23.352Z,66.50
2018-10-15T03:50:51.423Z,66.40
2018-10-15T03:53:19.556Z,66.40
2018-10-15T03:55:47.683Z,66.30
2018-10-15T03:58:15.822Z,66.50
2018-10-15T04:00:43.930Z,66.40
2018-10-15T04:03:12.012Z,66.40
2018-10-15T04:05:40.128Z,66.30
2018-10-15T04:08:08.295Z,66.40
2018-10-15T04:10:36.385Z,66.60
2018-10-15T04:13:04.650Z,67.30
2018-10-15T04:15:32.776Z,66.70
2018-10-15T04:18:00.916Z,66.50
2018-10-15T04:20:29.061Z,66.60
2018-10-15T04:22:57.584Z,66.70
2018-10-15T04:25:25.670Z,66.50
2018-10-15T04:27:53.778Z,66.80
2018-10-15T04:30:21.883Z,66.80
2018-10-15T04:32:49.971Z,67.00
2018-10-15T04:35:18.111Z,67.40
2018-10-15T04:37:46.249Z,67.10
2018-10-15T04:40:14.283Z,67.00
2018-10-15T04:42:43.445Z,67.20
2018-10-15T04:45:12.707Z,67.20
2018-10-15T04:47:41.805Z,67.30
2018-10-15T04:50:10.091Z,67.30
2018-10-15T04:52:38.200Z,67.20
2018-10-15T04:55:06.985Z,67.30
2018-10-15T04:57:35.377Z,67.60
2018-10-15T05:00:03.495Z,67.60
2018-10-15T05:02:31.586Z,67.70
2018-10-15T05:04:59.691Z,67.60
2018-10-15T05:07:27.835Z,67.60
2018-10-15T05:09:55.961Z,67.80
2018-10-15T05:12:24.103Z,67.70
2018-10-15T05:14:52.125Z,67.90
2018-10-15T05:17:20.357Z,67.80
2018-10-15T05:19:48.568Z,67.90
2018-10-15T05:22:16.654Z,67.20
2018-10-15T05:24:44.792Z,68.00
2018-10-15T05:27:12.883Z,67.90
2018-10-15T05:29:40.983Z,67.90
2018-10-15T05:32:09.131Z,68.00
2018-10-15T05:34:37.194Z,67.90
2018-10-15T05:37:05.355Z,68.10
2018-10-15T05:39:33.431Z,68.00
2018-10-15T05:42:01.553Z,67.90
2018-10-15T05:44:29.603Z,68.00
2018-10-15T05:46:57.770Z,69.00
2018-10-15T05:49:25.829Z,68.20
2018-10-15T05:51:53.930Z,68.10
2018-10-15T05:54:22.171Z,68.40
2018-10-15T05:56:50.275Z,68.40
2018-10-15T05:59:18.428Z,68.50
2018-10-15T06:01:46.512Z,68.40
2018-10-15T06:04:14.595Z,68.30
2018-10-15T06:06:42.903Z,68.50
2018-10-15T06:09:12.853Z,68.60
2018-10-15T06:11:41.044Z,68.80
2018-10-15T06:14:10.204Z,68.90
2018-10-15T06:16:38.982Z,68.80
2018-10-15T06:19:07.127Z,68.90
2018-10-15T06:21:35.543Z,69.00
2018-10-15T06:24:03.649Z,69.10
2018-10-15T06:26:31.771Z,69.00
2018-10-15T06:28:59.892Z,69.20
2018-10-15T06:31:27.997Z,69.00
2018-10-15T06:33:56.209Z,69.00
2018-10-15T06:36:24.318Z,69.10
2018-10-15T06:38:52.648Z,69.20
2018-10-15T06:41:20.875Z,69.00
2018-10-15T06:43:48.952Z,68.90
2018-10-15T06:46:17.146Z,69.00
2018-10-15T06:48:45.143Z,68.90
2018-10-15T06:51:13.277Z,68.90
2018-10-15T06:53:41.360Z,68.90
2018-10-15T06:56:09.435Z,69.00
2018-10-15T06:58:37.632Z,69.20
2018-10-15T07:01:05.836Z,69.80
2018-10-15T07:03:34.035Z,69.50
2018-10-15T07:06:02.170Z,69.10
2018-10-15T07:08:30.283Z,69.00
2018-10-15T07:10:58.425Z,68.80
2018-10-15T07:13:26.572Z,68.30
2018-10-15T07:15:54.662Z,68.20
2018-10-15T07:18:22.790Z,67.90
2018-10-15T07:20:50.986Z,67.80
2018-10-15T07:23:19.034Z,67.60
2018-10-15T07:25:47.126Z,67.30
2018-10-15T07:28:15.552Z,67.00
2018-10-15T07:30:43.623Z,66.90
2018-10-15T07:33:11.763Z,66.80
2018-10-15T07:35:39.867Z,66.40
2018-10-15T07:38:08.020Z,66.40
2018-10-15T07:40:36.130Z,65.90
2018-10-15T07:43:04.258Z,66.10
2018-10-15T07:45:32.450Z,66.00
2018-10-15T07:48:00.553Z,65.70
2018-10-15T07:50:28.646Z,65.20
2018-10-15T07:52:56.747Z,65.20
2018-10-15T07:55:24.848Z,64.80
2018-10-15T07:57:52.984Z,65.20
2018-10-15T08:00:22.607Z,64.60
2018-10-15T08:02:51.093Z,64.90
2018-10-15T08:05:19.259Z,65.10
2018-10-15T08:07:47.856Z,64.70
2018-10-15T08:10:16.042Z,64.50
2018-10-15T08:12:44.503Z,64.40
2018-10-15T08:15:13.925Z,64.30
2018-10-15T08:17:42.521Z,64.30
2018-10-15T08:20:12.452Z,64.20
2018-10-15T08:22:41.294Z,64.20
2018-10-15T08:25:09.427Z,64.20
2018-10-15T08:27:38.460Z,64.00
2018-10-15T08:30:08.492Z,64.40
2018-10-15T08:32:36.680Z,64.10
2018-10-15T08:35:04.994Z,63.70
2018-10-15T08:37:33.104Z,63.40
2018-10-15T08:40:01.195Z,63.10
2018-10-15T08:42:29.298Z,63.20
2018-10-15T08:44:57.390Z,63.00
2018-10-15T08:47:26.386Z,62.90
2018-10-15T08:49:54.539Z,63.00
2018-10-15T08:52:22.617Z,62.90
2018-10-15T08:54:50.658Z,63.10
2018-10-15T08:57:18.739Z,62.60
2018-10-15T08:59:46.826Z,62.90
2018-10-15T09:02:14.916Z,62.60
2018-10-15T09:04:43.031Z,62.90
2018-10-15T09:07:11.144Z,62.50
2018-10-15T09:09:39.220Z,62.10
2018-10-15T09:12:07.301Z,61.80
2018-10-15T09:14:35.419Z,61.70
2018-10-15T09:17:03.491Z,61.70
2018-10-15T09:19:31.582Z,61.50
2018-10-15T09:21:59.720Z,61.90
2018-10-15T09:24:27.818Z,61.70
2018-10-15T09:26:55.994Z,61.60
2018-10-15T09:29:24.130Z,62.00
2018-10-15T09:31:52.301Z,61.90
2018-10-15T09:34:20.391Z,61.50
2018-10-15T09:36:48.575Z,60.90
2018-10-15T09:39:16.679Z,61.00
2018-10-15T09:41:44.760Z,60.90
2018-10-15T09:44:12.863Z,60.50
2018-10-15T09:46:40.985Z,60.40
2018-10-15T09:49:09.055Z,60.60
2018-10-15T09:51:37.135Z,60.10
2018-10-15T09:54:05.274Z,60.80
2018-10-15T09:56:33.439Z,60.70
2018-10-15T09:59:01.656Z,60.40
2018-10-15T10:01:34.919Z,60.50
2018-10-15T10:04:03.391Z,60.70
2018-10-15T10:06:31.480Z,61.30
2018-10-15T10:08:59.647Z,60.10
2018-10-15T10:11:27.695Z,59.90
2018-10-15T10:13:55.827Z,59.50
2018-10-15T10:16:23.972Z,59.30
2018-10-15T10:18:52.076Z,59.30
2018-10-15T10:21:20.168Z,59.60
2018-10-15T10:23:48.318Z,59.20
2018-10-15T10:26:16.429Z,59.00
2018-10-15T10:28:44.644Z,59.30
2018-10-15T10:31:12.630Z,59.10
2018-10-15T10:33:57.542Z,59.40
2018-10-15T10:36:25.628Z,58.50
2018-10-15T10:38:55.450Z,58.80
2018-10-15T10:41:23.547Z,59.00
2018-10-15T10:43:53.119Z,59.00
2018-10-15T10:46:21.243Z,58.80
2018-10-15T10:48:49.713Z,58.40
2018-10-15T10:51:22.456Z,57.90
2018-10-15T10:53:50.954Z,57.60
2018-10-15T10:56:19.043Z,58.20
2018-10-15T10:58:47.241Z,57.90
2018-10-15T11:01:15.259Z,57.60
2018-10-15T11:03:43.353Z,57.60
2018-10-15T11:06:11.437Z,57.30
2018-10-15T11:08:39.616Z,57.20
2018-10-15T11:11:07.938Z,57.30
2018-10-15T11:13:36.041Z,56.80
2018-10-15T11:16:04.135Z,57.10
2018-10-15T11:18:32.316Z,56.80
2018-10-15T11:21:00.492Z,56.70
2018-10-15T11:23:28.630Z,56.80
2018-10-15T11:25:56.758Z,56.40
2018-10-15T11:28:24.983Z,57.00
2018-10-15T11:30:53.087Z,56.80
2018-10-15T11:33:21.391Z,56.50
2018-10-15T11:35:49.750Z,57.40
2018-10-15T11:38:17.830Z,56.90
2018-10-15T11:40:46.030Z,56.70
2018-10-15T11:43:14.276Z,56.20
2018-10-15T11:45:42.295Z,56.50
2018-10-15T11:48:10.389Z,56.50
2018-10-15T11:50:38.451Z,56.30
2018-10-15T11:53:06.583Z,56.20
2018-10-15T11:55:34.699Z,55.90
2018-10-15T11:58:02.845Z,56.20
2018-10-15T12:00:30.899Z,55.50
2018-10-15T12:02:59.015Z,55.30
2018-10-15T12:05:27.103Z,55.60
2018-10-15T12:07:55.207Z,55.70
2018-10-15T12:10:23.279Z,55.50
2018-10-15T12:12:51.374Z,55.20
2018-10-15T12:15:19.474Z,54.80
2018-10-15T12:17:47.580Z,55.10
2018-10-15T12:20:15.709Z,55.40
2018-10-15T12:22:43.858Z,55.00
2018-10-15T12:25:13.389Z,54.80
2018-10-15T12:27:41.461Z,54.60
2018-10-15T12:30:10.557Z,54.70
2018-10-15T12:32:38.646Z,55.00
2018-10-15T12:35:07.915Z,54.80
2018-10-15T12:37:36.015Z,54.40
2018-10-15T12:40:04.526Z,54.50
2018-10-15T12:42:32.602Z,54.30
2018-10-15T12:45:00.712Z,53.50
2018-10-15T12:47:28.808Z,53.90
2018-10-15T12:49:56.863Z,53.90
2018-10-15T12:52:24.969Z,53.60
2018-10-15T12:54:53.082Z,53.50
2018-10-15T12:57:21.299Z,53.40
2018-10-15T12:59:49.489Z,53.30
2018-10-15T13:02:17.570Z,53.50
2018-10-15T13:04:55.804Z,53.20
2018-10-15T13:07:23.964Z,52.80
2018-10-15T13:09:52.051Z,52.70
2018-10-15T13:12:20.164Z,52.80
2018-10-15T13:14:48.282Z,52.60
2018-10-15T13:17:16.387Z,52.60
2018-10-15T13:19:44.459Z,52.70
2018-10-15T13:22:12.542Z,52.40
2018-10-15T13:24:40.638Z,51.40
2018-10-15T13:27:08.778Z,52.20
2018-10-15T13:29:36.907Z,51.90
2018-10-15T13:32:05.528Z,51.80
2018-10-15T13:34:33.658Z,51.90
2018-10-15T13:37:01.838Z,51.60
2018-10-15T13:39:29.968Z,51.20
2018-10-15T13:41:58.084Z,51.00
2018-10-15T13:44:26.275Z,51.10
2018-10-15T13:46:54.434Z,50.60
2018-10-15T13:49:22.563Z,50.60
2018-10-15T13:51:50.699Z,51.00
2018-10-15T13:54:18.819Z,50.40
2018-10-15T13:56:46.971Z,50.60
2018-10-15T13:59:15.105Z,50.60
2018-10-15T14:01:43.188Z,50.20
2018-10-15T14:04:11.283Z,50.60
2018-10-15T14:06:39.407Z,50.50
2018-10-15T14:09:08.673Z,50.20
2018-10-15T14:11:36.782Z,50.20
2018-10-15T14:14:04.921Z,50.50
2018-10-15T14:16:33.020Z,50.50
2018-10-15T14:19:01.083Z,50.50
2018-10-15T14:21:29.247Z,50.40
2018-10-15T14:23:57.469Z,50.80
2018-10-15T14:26:25.566Z,51.20
2018-10-15T14:28:53.699Z,51.20
2018-10-15T14:31:21.817Z,51.40
2018-10-15T14:33:49.972Z,51.50
2018-10-15T14:36:18.069Z,51.30
2018-10-15T14:38:46.183Z,51.10
2018-10-15T14:41:14.454Z,51.00
2018-10-15T14:43:42.553Z,51.20
2018-10-15T14:46:10.683Z,51.40
2018-10-15T14:48:38.786Z,51.50
2018-10-15T14:51:06.920Z,51.40
2018-10-15T14:53:35.031Z,51.60
2018-10-15T14:56:03.173Z,51.00
2018-10-15T14:58:31.273Z,51.00
2018-10-15T15:00:59.387Z,51.00
2018-10-15T15:03:27.486Z,50.80
2018-10-15T15:05:55.596Z,51.00
2018-10-15T15:08:23.701Z,51.00
2018-10-15T15:11:03.290Z,51.10
2018-10-15T15:13:42.788Z,51.40
2018-10-15T15:16:10.904Z,51.50
2018-10-15T15:18:39.059Z,51.10
2018-10-15T15:21:07.187Z,51.40
2018-10-15T15:23:35.278Z,52.40
2018-10-15T15:26:03.390Z,52.20
2018-10-15T15:28:31.513Z,52.40
2018-10-15T15:30:59.627Z,52.20
2018-10-15T15:33:27.731Z,52.10
2018-10-15T15:35:55.843Z,52.10
2018-10-15T15:38:23.947Z,52.10
2018-10-15T15:40:52.157Z,52.00
2018-10-15T15:43:20.308Z,52.20
2018-10-15T15:45:48.430Z,52.50
2018-10-15T15:48:16.508Z,52.30
2018-10-15T15:50:44.591Z,52.40
2018-10-15T15:53:12.683Z,52.50
2018-10-15T15:55:40.835Z,53.10
2018-10-15T15:58:08.975Z,53.10
2018-10-15T16:00:37.083Z,53.30
2018-10-15T16:03:05.746Z,52.90
2018-10-15T16:05:33.847Z,53.30
2018-10-15T16:08:02.635Z,53.60
2018-10-15T16:10:30.783Z,52.50
2018-10-15T16:12:58.987Z,53.00
2018-10-15T16:15:27.112Z,53.10
2018-10-15T16:17:55.207Z,53.90
2018-10-15T16:20:23.360Z,53.30
2018-10-15T16:22:51.495Z,53.50
2018-10-15T16:25:19.603Z,53.40
2018-10-15T16:27:48.778Z,53.60
2018-10-15T16:30:16.967Z,53.70
2018-10-15T16:32:45.098Z,53.40
2018-10-15T16:35:13.203Z,53.70
2018-10-15T16:37:42.570Z,53.60
2018-10-15T16:40:16.069Z,53.50
2018-10-15T16:42:44.143Z,54.00
2018-10-15T16:45:13.090Z,54.00
2018-10-15T16:47:42.003Z,55.20
2018-10-15T16:50:12.226Z,54.70
2018-10-15T16:52:40.437Z,54.90
2018-10-15T16:55:11.351Z,54.90
2018-10-15T16:57:40.771Z,55.20
2018-10-15T17:00:09.709Z,55.20
2018-10-15T17:02:39.447Z,56.40
2018-10-15T17:05:08.927Z,55.60
2018-10-15T17:07:37.457Z,55.90
2018-10-15T17:10:07.076Z,55.90
2018-10-15T17:12:35.167Z,56.00
2018-10-15T17:15:03.266Z,56.10
2018-10-15T17:17:31.920Z,56.30
2018-10-15T17:20:00.202Z,56.30
2018-10-15T17:22:28.709Z,56.50
2018-10-15T17:25:01.504Z,56.50
2018-10-15T17:27:30.360Z,56.50
2018-10-15T17:30:06.500Z,56.00
2018-10-15T17:32:35.450Z,56.50
2018-10-15T17:35:04.272Z,56.80
2018-10-15T17:37:33.740Z,56.00
2018-10-15T17:40:02.335Z,56.30
2018-10-15T17:42:32.373Z,57.30
2018-10-15T17:45:01.000Z,56.70
2018-10-15T17:47:29.614Z,56.60
2018-10-15T17:50:00.338Z,57.20
2018-10-15T17:52:29.150Z,56.40
2018-10-15T17:55:04.005Z,57.20
2018-10-15T17:57:33.170Z,57.70
2018-10-15T18:00:03.322Z,56.20
2018-10-15T18:02:35.576Z,57.40
2018-10-15T18:05:06.403Z,58.40
2018-10-15T18:07:35.187Z,58.20
2018-10-15T18:10:05.506Z,58.50
2018-10-15T18:14:03.321Z,57.60
2018-10-15T18:16:33.281Z,58.80
2018-10-15T18:19:01.656Z,61.00
2018-10-15T18:21:31.220Z,60.90
2018-10-15T18:23:59.853Z,61.20
2018-10-15T18:26:28.260Z,60.80
2018-10-15T18:28:56.550Z,60.50
2018-10-15T18:31:24.828Z,60.60
2018-10-15T18:33:53.488Z,60.40
2018-10-15T18:36:28.763Z,60.40
2018-10-15T18:38:57.131Z,59.90
2018-10-15T18:41:25.364Z,60.80
2018-10-15T18:43:53.494Z,60.70
2018-10-15T18:46:21.611Z,61.00
2018-10-15T18:48:49.723Z,61.00
2018-10-15T18:51:17.843Z,61.20
2018-10-15T18:53:46.290Z,61.70
2018-10-15T18:56:14.416Z,61.60
2018-10-15T18:58:42.512Z,63.10
2018-10-15T19:01:10.683Z,62.90
2018-10-15T19:03:38.739Z,62.70
2018-10-15T19:06:06.828Z,62.50
2018-10-15T19:08:35.000Z,62.30
2018-10-15T19:11:03.153Z,62.30
2018-10-15T19:13:31.346Z,62.20
2018-10-15T19:15:59.463Z,62.10
2018-10-15T19:18:27.641Z,62.10
2018-10-15T19:20:55.747Z,62.20
2018-10-15T19:23:23.879Z,62.00
2018-10-15T19:25:52.002Z,62.30
2018-10-15T19:28:20.176Z,63.10
2018-10-15T19:30:48.299Z,62.40
2018-10-15T19:33:16.446Z,64.40
2018-10-15T19:35:44.552Z,65.00
2018-10-15T19:38:12.658Z,64.60
2018-10-15T19:40:40.798Z,64.20
2018-10-15T19:43:08.892Z,64.90
2018-10-15T19:45:37.005Z,64.00
2018-10-15T19:48:05.124Z,63.80
2018-10-15T19:50:33.222Z,63.80
2018-10-15T19:53:01.353Z,63.80
2018-10-15T19:55:29.458Z,63.80
2018-10-15T19:57:57.541Z,63.80
2018-10-15T20:00:25.666Z,63.80
2018-10-15T20:02:53.791Z,63.80
2018-10-15T20:05:21.927Z,64.70
2018-10-15T20:07:50.111Z,64.10
2018-10-15T20:10:18.747Z,64.30
2018-10-15T20:12:47.113Z,64.20
2018-10-15T20:15:15.208Z,65.90
2018-10-15T20:17:43.563Z,65.60
2018-10-15T20:20:12.888Z,65.40
2018-10-15T20:22:42.820Z,65.20
2018-10-15T20:25:12.231Z,65.10
2018-10-15T20:27:41.176Z,65.00
2018-10-15T20:30:10.497Z,65.00
2018-10-15T20:32:38.619Z,65.00
2018-10-15T20:35:07.981Z,65.00
2018-10-15T20:37:36.055Z,65.10
2018-10-15T20:40:04.499Z,65.00
2018-10-15T20:42:32.663Z,65.00
2018-10-15T20:45:00.753Z,65.10
2018-10-15T20:47:28.890Z,65.30
2018-10-15T20:49:57.402Z,66.10
2018-10-15T20:52:25.508Z,65.90
2018-10-15T20:54:53.612Z,65.80
2018-10-15T20:57:21.847Z,65.70
2018-10-15T20:59:50.119Z,65.40
2018-10-15T21:02:18.628Z,65.30
2018-10-15T21:04:47.811Z,66.30
2018-10-15T21:07:16.143Z,65.00
2018-10-15T21:09:44.310Z,65.40
2018-10-15T21:12:12.799Z,65.30
2018-10-15T21:14:40.923Z,65.30
2018-10-15T21:17:09.073Z,66.10
2018-10-15T21:19:37.170Z,65.50
2018-10-15T21:22:05.292Z,65.70
2018-10-15T21:24:33.411Z,65.80
2018-10-15T21:27:01.534Z,65.80
2018-10-15T21:29:29.655Z,66.10
2018-10-15T21:31:57.770Z,66.00
2018-10-15T21:34:25.979Z,67.20
2018-10-15T21:36:54.113Z,67.10
2018-10-15T21:39:22.336Z,66.80
2018-10-15T21:41:50.490Z,66.60
2018-10-15T21:44:18.599Z,66.40
2018-10-15T21:46:46.701Z,66.30
2018-10-15T21:49:14.793Z,66.20
2018-10-15T21:51:43.221Z,65.90
2018-10-15T21:54:11.723Z,66.00
2018-10-15T21:56:40.197Z,65.60
2018-10-15T21:59:08.997Z,65.40
2018-10-15T22:01:37.361Z,65.80
2018-10-15T22:04:06.011Z,65.40
2018-10-15T22:06:34.358Z,65.80
2018-10-15T22:09:02.926Z,65.60
2018-10-15T22:11:31.231Z,65.80
2018-10-15T22:13:59.684Z,65.90
2018-10-15T22:16:29.988Z,65.70
2018-10-15T22:18:58.363Z,65.70
2018-10-15T22:21:26.903Z,65.80
2018-10-15T22:23:55.307Z,66.10
2018-10-15T22:26:23.379Z,66.00
2018-10-15T22:28:51.699Z,66.10
2018-10-15T22:31:20.157Z,66.30
2018-10-15T22:33:48.242Z,66.30
2018-10-15T22:36:16.367Z,66.20
2018-10-15T22:38:44.461Z,66.50
2018-10-15T22:41:12.556Z,66.60
2018-10-15T22:43:40.654Z,66.70
2018-10-15T22:46:08.775Z,66.70
2018-10-15T22:48:37.011Z,66.80
2018-10-15T22:51:05.596Z,66.70
2018-10-15T22:53:34.037Z,67.10
2018-10-15T22:56:02.776Z,67.00
2018-10-15T22:58:30.887Z,67.00
2018-10-15T23:00:59.278Z,67.20
2018-10-15T23:03:27.703Z,67.40
2018-10-15T23:05:56.224Z,67.10
2018-10-15T23:08:25.470Z,67.20
2018-10-15T23:10:54.409Z,67.40
2018-10-15T23:13:22.638Z,67.60
2018-10-15T23:15:51.031Z,67.20
2018-10-15T23:18:19.318Z,67.30
2018-10-15T23:20:47.910Z,67.30
2018-10-15T23:23:16.382Z,67.20
2018-10-15T23:25:45.033Z,68.00
2018-10-15T23:28:13.324Z,67.60
2018-10-15T23:30:41.753Z,67.20
2018-10-15T23:33:10.097Z,67.20
2018-10-15T23:35:38.320Z,67.30
2018-10-15T23:38:06.763Z,67.20
2018-10-15T23:40:35.054Z,68.00
2018-10-15T23:43:03.421Z,67.60
2018-10-15T23:45:31.519Z,67.70
2018-10-15T23:47:59.623Z,67.60
2018-10-15T23:50:28.067Z,67.60
2018-10-15T23:52:56.457Z,67.50
2018-10-15T23:55:24.646Z,67.50
2018-10-15T23:57:52.959Z,67.20
